Bei Facebook empfehlenBei Twitter postenGoogle plusPinterest

Das Wetter im Erzgebirge am 24.02.2016

Wetter und Klima am 24.02.2016 Holzhau im Erzgebirge (630m ü.NN)
Letzte gemessene Temperatur und Uhrzeit der Messung23:45:00 Uhr-6.20 °C
Temperatur (Maximum / Höchstwert) und Uhrzeit der Messung13:00:00 Uhr2.60 °C
Temperatur (Minimum / Tiefstwert) und Uhrzeit der Messung22:45:00-6.80 °C
Errechneter Absolutwert der Temperaturschwankungen zwischen Tmin und Tmax des Tages9.40 K
Errechnete Tagesmitteltemperatur-1.24167 °C
Gesamt - Niederschlag des Tages (in flüssiger Form)2.07 Liter / m²
Luftdruck (Maximum / Höchstwert) und Zeitpunkt der Messung11:00:00 Uhr1011.50 hPa
Luftdruck (Minimum / Tiefstwert) und Zeitpunkt der Messung23:45:00 Uhr1008.40 hPa
Errechneter Absolutwert der Luftdruckschwankungen des Tages3.10 hPa
Höchste gemessene Windgeschwindigkeit und Uhrzeit der Messung00:15:00 Uhr10.44 km/h
Errechnete Windhäufigkeit in Relation zu den Messwerten des Tages17.70833 %
Niedrigste Windkühle (Windchill) und Zeitpunkt der Messung22:45:00 Uhr-6.80 °C
Taupunkt (Maximum / Höchstwert) und Uhrzeit der Messung12:15:00 Uhr0.80 °C
Taupunkt (Minimum / Tiefstwert) und Uhrzeit der Messung22:45:00-8.50 °C
Anzahl der automatisch eingelesenen Messwerte 96

Detaillierte Wetter- und Klima- Messwerte für den 24.02.2016 in Holzhau im Erzgebirge (630m ü.NN)
ZeitTemperaturLuftdruckRel. LuftfeuchteWindWindrichtungWindchillTaupunktNiederschlag l/m²
23:45:00-6.20 °C1008.40 hPa90.00 %-7.70 °C2.07
23:30:00-6.40 °C1008.40 hPa90.00 %-7.90 °C2.07
23:15:00-6.20 °C1008.40 hPa90.00 %-7.70 °C2.07
23:00:00-6.60 °C1008.40 hPa90.00 %-8.10 °C2.07
22:45:00-6.80 °C1008.40 hPa89.00 %-8.50 °C2.07
22:30:00-6.70 °C1008.50 hPa89.00 %-8.40 °C2.07
22:15:00-6.60 °C1008.70 hPa89.00 %-8.30 °C2.07
22:00:00-6.30 °C1008.70 hPa89.00 %-8.00 °C2.07
21:45:00-6.10 °C1008.70 hPa89.00 %-7.80 °C2.07
21:30:00-5.70 °C1008.70 hPa89.00 %-7.40 °C2.07
21:15:00-5.60 °C1008.90 hPa89.00 %-7.30 °C2.07
21:00:00-5.20 °C1009.00 hPa89.00 %-6.90 °C2.07
20:45:00-5.10 °C1009.10 hPa89.00 %-6.80 °C2.07
20:30:00-4.90 °C1009.30 hPa89.00 %-6.60 °C2.07
20:15:00-5.00 °C1009.30 hPa89.00 %-6.70 °C2.07
20:00:00-5.10 °C1009.40 hPa88.00 %-7.00 °C2.07
19:45:00-4.80 °C1009.30 hPa88.00 %-6.70 °C2.07
19:30:00-4.80 °C1009.20 hPa88.00 %-6.70 °C2.07
19:15:00-4.60 °C1009.20 hPa87.00 %-6.70 °C2.07
19:00:00-4.30 °C1009.50 hPa87.00 %-6.40 °C2.07
18:45:00-4.00 °C1009.40 hPa87.00 %-6.10 °C2.07
18:30:00-3.50 °C1009.60 hPa86.00 %-5.70 °C2.07
18:15:00-2.80 °C1009.60 hPa86.00 %-5.10 °C2.07
18:00:00-2.10 °C1009.50 hPa86.00 %-4.40 °C2.07
17:45:00-1.60 °C1009.60 hPa86.00 %-3.90 °C2.07
17:30:00-1.10 °C1009.70 hPa86.00 %-3.40 °C2.07
17:15:00-0.80 °C1009.80 hPa86.00 %-3.10 °C2.07
17:00:00-0.40 °C1009.80 hPa85.00 %-2.90 °C2.07
16:45:000.10 °C1009.90 hPa84.00 %7.56 km/hW-2.50 °C-2.30 °C1.55
16:30:000.80 °C1009.80 hPa84.00 %2.52 km/hSW0.80 °C-1.60 °C1.55
16:15:001.50 °C1009.70 hPa85.00 %-0.70 °C1.55
16:00:001.00 °C1009.90 hPa85.00 %-1.20 °C1.55
15:45:000.40 °C1009.80 hPa82.00 %-2.30 °C1.55
15:30:001.20 °C1009.90 hPa81.00 %-1.70 °C1.55
15:15:001.90 °C1010.00 hPa81.00 %6.48 km/hW0.00 °C-1.00 °C1.55
15:00:001.60 °C1009.90 hPa83.00 %-1.00 °C1.55
14:45:001.30 °C1009.90 hPa84.00 %5.40 km/hW-0.30 °C-1.10 °C1.03
14:30:001.60 °C1010.00 hPa83.00 %5.40 km/hW0.10 °C-1.00 °C1.03
14:15:002.30 °C1010.10 hPa84.00 %9.36 km/hW-0.40 °C-0.10 °C1.03
14:00:001.60 °C1010.30 hPa85.00 %-0.60 °C1.03
13:45:001.10 °C1010.40 hPa85.00 %-1.10 °C1.03
13:30:001.30 °C1010.60 hPa84.00 %-1.10 °C1.03
13:15:002.10 °C1010.70 hPa83.00 %7.56 km/hW-0.10 °C-0.50 °C0.51
13:00:002.60 °C1010.60 hPa86.00 %0.50 °C0.51
12:45:002.40 °C1010.80 hPa86.00 %9.36 km/hWSW-0.30 °C0.30 °C0.51
12:30:002.50 °C1010.80 hPa87.00 %0.60 °C0.51
12:15:002.60 °C1011.10 hPa88.00 %6.48 km/hWSW0.80 °C0.80 °C0.51
12:00:002.20 °C1011.10 hPa90.00 %0.70 °C0.51
11:45:001.30 °C1011.30 hPa90.00 %-0.20 °C0.51
11:30:000.90 °C1011.30 hPa91.00 %-0.40 °C0.51
11:15:000.80 °C1011.40 hPa91.00 %-0.50 °C0.51
11:00:000.80 °C1011.50 hPa92.00 %-0.30 °C0.51
10:45:000.80 °C1011.40 hPa92.00 %-0.30 °C0.51
10:30:001.30 °C1011.40 hPa92.00 %0.10 °C 
10:15:001.20 °C1011.30 hPa93.00 %0.20 °C 
10:00:000.80 °C1011.30 hPa93.00 %-0.20 °C 
09:45:000.60 °C1011.20 hPa94.00 %-0.30 °C 
09:30:000.10 °C1011.30 hPa94.00 %-0.70 °C 
09:15:00-0.20 °C1011.30 hPa94.00 %-1.10 °C 
09:00:00-0.50 °C1011.40 hPa95.00 %-1.30 °C 
08:45:00-1.10 °C1011.40 hPa95.00 %-1.90 °C 
08:30:00-1.10 °C1011.20 hPa94.00 %-2.00 °C 
08:15:00-0.90 °C1011.00 hPa95.00 %-1.70 °C 
08:00:00-1.10 °C1010.90 hPa95.00 %-1.90 °C 
07:45:00-1.20 °C1010.80 hPa95.00 %-2.00 °C 
07:30:00-1.30 °C1010.70 hPa95.00 %-2.10 °C 
07:15:00-1.20 °C1010.40 hPa95.00 %-2.00 °C 
07:00:00-1.10 °C1010.20 hPa95.00 %-1.90 °C 
06:45:00-1.10 °C1010.10 hPa95.00 %-1.90 °C 
06:30:00-1.10 °C1009.90 hPa95.00 %-1.90 °C 
06:15:00-1.10 °C1009.80 hPa94.00 %-2.00 °C 
06:00:00-1.00 °C1009.70 hPa94.00 %-1.90 °C 
05:45:00-1.00 °C1009.70 hPa94.00 %-1.90 °C 
05:30:00-0.90 °C1009.80 hPa94.00 %-1.80 °C 
05:15:00-0.90 °C1009.90 hPa94.00 %-1.80 °C 
05:00:00-0.80 °C1009.70 hPa94.00 %-1.70 °C 
04:45:00-0.70 °C1009.60 hPa94.00 %6.12 km/hW-2.90 °C-1.60 °C 
04:30:00-0.70 °C1009.50 hPa94.00 %-1.60 °C 
04:15:00-0.70 °C1009.60 hPa94.00 %-1.60 °C 
04:00:00-0.70 °C1009.50 hPa94.00 %1.80 km/hW-0.70 °C-1.60 °C 
03:45:00-0.60 °C1009.30 hPa94.00 %-1.50 °C 
03:30:00-0.60 °C1009.40 hPa94.00 %-1.50 °C 
03:15:00-0.70 °C1009.40 hPa94.00 %-1.60 °C 
03:00:00-0.70 °C1009.40 hPa94.00 %2.88 km/hW-0.70 °C-1.60 °C 
02:45:00-0.70 °C1009.50 hPa94.00 %-1.60 °C 
02:30:00-0.80 °C1009.50 hPa94.00 %-1.70 °C 
02:15:00-0.80 °C1009.60 hPa94.00 %-1.70 °C 
02:00:00-0.80 °C1009.50 hPa94.00 %-1.70 °C 
01:45:00-0.80 °C1009.40 hPa94.00 %-1.70 °C 
01:30:00-0.70 °C1009.30 hPa94.00 %4.68 km/hWSW-0.70 °C-1.60 °C 
01:15:00-0.70 °C1009.30 hPa94.00 %5.04 km/hW-2.40 °C-1.60 °C 
01:00:00-0.60 °C1009.40 hPa94.00 %7.92 km/hWNW-3.40 °C-1.50 °C 
00:45:00-0.50 °C1009.30 hPa94.00 %-1.40 °C 
00:30:00-0.40 °C1009.20 hPa94.00 %-1.30 °C 
00:15:00-0.40 °C1008.90 hPa94.00 %10.44 km/hWNW-3.90 °C-1.30 °C 
00:00:00-0.40 °C1008.90 hPa94.00 %3.96 km/hWNW-0.40 °C-1.30 °C 

Permanenter Link zu dieser Seite: Wetter im Erzgebirge am 24.02.2016
Performance-Info: Die Erstellung der Seite / Statistik(en) / Tabelle(n) erforderte 5 Datenbankserver-Abfrage(n) und dauerte 102 Millisekunden. (Dieser Messwert ist von der Gesamt-Auslastung des Servers abhängig.)
Erzgebirge - Wetter | Erzgebirge - Wetter (Mobilgeräte) | Komplette Klimadatenbank